sensor_id;sensor_type;location;lat;lon;timestamp;temperature;humidity
19039;DHT22;9652;49.014;12.052;2023-09-19T00:00:40;19.40;75.20
19039;DHT22;9652;49.014;12.052;2023-09-19T00:03:09;19.40;75.20
19039;DHT22;9652;49.014;12.052;2023-09-19T00:05:37;19.40;75.20
19039;DHT22;9652;49.014;12.052;2023-09-19T00:08:05;19.40;75.30
19039;DHT22;9652;49.014;12.052;2023-09-19T00:10:33;19.40;75.40
19039;DHT22;9652;49.014;12.052;2023-09-19T00:13:02;19.40;75.50
19039;DHT22;9652;49.014;12.052;2023-09-19T00:15:36;19.40;75.60
19039;DHT22;9652;49.014;12.052;2023-09-19T00:18:05;19.50;76.10
19039;DHT22;9652;49.014;12.052;2023-09-19T00:20:35;19.50;75.90
19039;DHT22;9652;49.014;12.052;2023-09-19T00:23:03;19.50;76.10
19039;DHT22;9652;49.014;12.052;2023-09-19T00:25:34;19.50;76.00
19039;DHT22;9652;49.014;12.052;2023-09-19T00:28:03;19.50;76.10
19039;DHT22;9652;49.014;12.052;2023-09-19T00:30:32;19.60;76.00
19039;DHT22;9652;49.014;12.052;2023-09-19T00:32:59;19.60;76.10
19039;DHT22;9652;49.014;12.052;2023-09-19T00:35:28;19.60;75.70
19039;DHT22;9652;49.014;12.052;2023-09-19T00:37:57;19.60;76.60
19039;DHT22;9652;49.014;12.052;2023-09-19T00:40:25;19.60;75.90
19039;DHT22;9652;49.014;12.052;2023-09-19T00:42:57;19.60;75.80
19039;DHT22;9652;49.014;12.052;2023-09-19T00:45:25;19.60;76.00
19039;DHT22;9652;49.014;12.052;2023-09-19T00:47:54;19.70;75.90
19039;DHT22;9652;49.014;12.052;2023-09-19T00:50:25;19.70;75.80
19039;DHT22;9652;49.014;12.052;2023-09-19T00:52:55;19.70;75.70
19039;DHT22;9652;49.014;12.052;2023-09-19T00:55:25;19.70;75.70
19039;DHT22;9652;49.014;12.052;2023-09-19T00:57:56;19.80;75.60
19039;DHT22;9652;49.014;12.052;2023-09-19T01:00:22;19.70;75.90
19039;DHT22;9652;49.014;12.052;2023-09-19T01:02:50;19.70;75.40
19039;DHT22;9652;49.014;12.052;2023-09-19T01:05:17;19.80;75.50
19039;DHT22;9652;49.014;12.052;2023-09-19T01:07:45;19.70;75.50
19039;DHT22;9652;49.014;12.052;2023-09-19T01:10:16;19.80;75.70
19039;DHT22;9652;49.014;12.052;2023-09-19T01:12:54;19.70;75.80
19039;DHT22;9652;49.014;12.052;2023-09-19T01:15:32;19.70;76.20
19039;DHT22;9652;49.014;12.052;2023-09-19T01:18:16;19.70;76.10
19039;DHT22;9652;49.014;12.052;2023-09-19T01:20:57;19.70;76.10
19039;DHT22;9652;49.014;12.052;2023-09-19T01:23:44;19.80;76.10
19039;DHT22;9652;49.014;12.052;2023-09-19T01:26:50;19.80;76.10
19039;DHT22;9652;49.014;12.052;2023-09-19T01:29:39;19.80;76.10
19039;DHT22;9652;49.014;12.052;2023-09-19T01:32:13;19.80;75.90
19039;DHT22;9652;49.014;12.052;2023-09-19T01:34:47;19.80;75.90
19039;DHT22;9652;49.014;12.052;2023-09-19T01:37:16;19.90;76.10
19039;DHT22;9652;49.014;12.052;2023-09-19T01:39:46;19.90;76.00
19039;DHT22;9652;49.014;12.052;2023-09-19T01:42:24;19.90;76.00
19039;DHT22;9652;49.014;12.052;2023-09-19T01:45:03;19.90;76.10
19039;DHT22;9652;49.014;12.052;2023-09-19T01:47:42;19.90;76.10
19039;DHT22;9652;49.014;12.052;2023-09-19T01:50:24;19.90;76.00
19039;DHT22;9652;49.014;12.052;2023-09-19T01:53:00;19.90;75.90
19039;DHT22;9652;49.014;12.052;2023-09-19T01:55:37;20.00;76.00
19039;DHT22;9652;49.014;12.052;2023-09-19T01:58:15;20.00;76.00
19039;DHT22;9652;49.014;12.052;2023-09-19T02:00:49;20.00;76.00
19039;DHT22;9652;49.014;12.052;2023-09-19T02:03:20;20.00;75.90
19039;DHT22;9652;49.014;12.052;2023-09-19T02:05:49;20.00;75.90
19039;DHT22;9652;49.014;12.052;2023-09-19T02:08:19;20.00;75.70
19039;DHT22;9652;49.014;12.052;2023-09-19T02:10:47;20.00;75.70
19039;DHT22;9652;49.014;12.052;2023-09-19T02:13:15;20.00;75.70
19039;DHT22;9652;49.014;12.052;2023-09-19T02:15:44;20.00;75.70
19039;DHT22;9652;49.014;12.052;2023-09-19T02:18:12;20.00;75.70
19039;DHT22;9652;49.014;12.052;2023-09-19T02:20:41;20.00;75.70
19039;DHT22;9652;49.014;12.052;2023-09-19T02:23:09;20.00;75.50
19039;DHT22;9652;49.014;12.052;2023-09-19T02:25:38;20.00;75.50
19039;DHT22;9652;49.014;12.052;2023-09-19T02:28:07;20.00;75.50
19039;DHT22;9652;49.014;12.052;2023-09-19T02:30:35;20.00;75.50
19039;DHT22;9652;49.014;12.052;2023-09-19T02:33:03;20.00;75.50
19039;DHT22;9652;49.014;12.052;2023-09-19T02:35:31;20.00;75.50
19039;DHT22;9652;49.014;12.052;2023-09-19T02:38:03;20.00;75.50
19039;DHT22;9652;49.014;12.052;2023-09-19T02:40:32;20.00;75.70
19039;DHT22;9652;49.014;12.052;2023-09-19T02:43:01;20.10;75.70
19039;DHT22;9652;49.014;12.052;2023-09-19T02:45:29;20.10;75.70
19039;DHT22;9652;49.014;12.052;2023-09-19T02:47:56;20.10;75.80
19039;DHT22;9652;49.014;12.052;2023-09-19T02:50:24;20.10;75.70
19039;DHT22;9652;49.014;12.052;2023-09-19T02:52:51;20.00;75.60
19039;DHT22;9652;49.014;12.052;2023-09-19T02:55:20;20.10;75.60
19039;DHT22;9652;49.014;12.052;2023-09-19T02:57:49;20.10;75.70
19039;DHT22;9652;49.014;12.052;2023-09-19T03:00:18;20.10;75.70
19039;DHT22;9652;49.014;12.052;2023-09-19T03:02:47;20.20;75.80
19039;DHT22;9652;49.014;12.052;2023-09-19T03:05:15;20.10;75.80
19039;DHT22;9652;49.014;12.052;2023-09-19T03:07:43;20.10;75.80
19039;DHT22;9652;49.014;12.052;2023-09-19T03:10:11;20.20;75.90
19039;DHT22;9652;49.014;12.052;2023-09-19T03:12:42;20.20;76.00
19039;DHT22;9652;49.014;12.052;2023-09-19T03:15:09;20.20;75.90
19039;DHT22;9652;49.014;12.052;2023-09-19T03:17:37;20.20;75.90
19039;DHT22;9652;49.014;12.052;2023-09-19T03:20:05;20.20;75.90
19039;DHT22;9652;49.014;12.052;2023-09-19T03:22:34;20.20;75.80
19039;DHT22;9652;49.014;12.052;2023-09-19T03:25:01;20.30;75.80
19039;DHT22;9652;49.014;12.052;2023-09-19T03:27:36;20.20;75.60
19039;DHT22;9652;49.014;12.052;2023-09-19T03:30:06;20.30;75.60
19039;DHT22;9652;49.014;12.052;2023-09-19T03:32:35;20.20;75.50
19039;DHT22;9652;49.014;12.052;2023-09-19T03:35:03;20.30;75.50
19039;DHT22;9652;49.014;12.052;2023-09-19T03:37:32;20.20;75.50
19039;DHT22;9652;49.014;12.052;2023-09-19T03:39:59;20.20;75.50
19039;DHT22;9652;49.014;12.052;2023-09-19T03:42:31;20.30;75.50
19039;DHT22;9652;49.014;12.052;2023-09-19T03:44:58;20.30;75.50
19039;DHT22;9652;49.014;12.052;2023-09-19T03:47:27;20.30;75.40
19039;DHT22;9652;49.014;12.052;2023-09-19T03:49:56;20.30;75.50
19039;DHT22;9652;49.014;12.052;2023-09-19T03:52:24;20.30;75.50
19039;DHT22;9652;49.014;12.052;2023-09-19T03:54:52;20.30;75.50
19039;DHT22;9652;49.014;12.052;2023-09-19T03:57:20;20.30;75.50
19039;DHT22;9652;49.014;12.052;2023-09-19T03:59:47;20.20;75.30
19039;DHT22;9652;49.014;12.052;2023-09-19T04:02:14;20.30;75.50
19039;DHT22;9652;49.014;12.052;2023-09-19T04:04:51;20.20;75.30
19039;DHT22;9652;49.014;12.052;2023-09-19T04:07:18;20.30;75.50
19039;DHT22;9652;49.014;12.052;2023-09-19T04:09:48;20.30;75.40
19039;DHT22;9652;49.014;12.052;2023-09-19T04:12:15;20.30;75.40
19039;DHT22;9652;49.014;12.052;2023-09-19T04:14:44;20.30;75.30
19039;DHT22;9652;49.014;12.052;2023-09-19T04:17:11;20.30;75.30
19039;DHT22;9652;49.014;12.052;2023-09-19T04:19:38;20.30;75.30
19039;DHT22;9652;49.014;12.052;2023-09-19T04:22:08;20.30;75.20
19039;DHT22;9652;49.014;12.052;2023-09-19T04:24:37;20.30;75.20
19039;DHT22;9652;49.014;12.052;2023-09-19T04:27:04;20.30;75.20
19039;DHT22;9652;49.014;12.052;2023-09-19T04:29:32;20.30;75.20
19039;DHT22;9652;49.014;12.052;2023-09-19T04:31:59;20.30;75.10
19039;DHT22;9652;49.014;12.052;2023-09-19T04:34:26;20.30;75.10
19039;DHT22;9652;49.014;12.052;2023-09-19T04:36:54;20.30;75.10
19039;DHT22;9652;49.014;12.052;2023-09-19T04:39:25;20.30;75.00
19039;DHT22;9652;49.014;12.052;2023-09-19T04:41:53;20.40;75.10
19039;DHT22;9652;49.014;12.052;2023-09-19T04:44:20;20.40;75.00
19039;DHT22;9652;49.014;12.052;2023-09-19T04:46:47;20.40;75.00
19039;DHT22;9652;49.014;12.052;2023-09-19T04:49:14;20.40;75.00
19039;DHT22;9652;49.014;12.052;2023-09-19T04:51:42;20.40;75.00
19039;DHT22;9652;49.014;12.052;2023-09-19T04:54:09;20.40;74.90
19039;DHT22;9652;49.014;12.052;2023-09-19T04:56:38;20.40;75.00
19039;DHT22;9652;49.014;12.052;2023-09-19T04:59:06;20.40;74.90
19039;DHT22;9652;49.014;12.052;2023-09-19T05:01:33;20.40;74.80
19039;DHT22;9652;49.014;12.052;2023-09-19T05:04:00;20.40;74.80
19039;DHT22;9652;49.014;12.052;2023-09-19T05:06:30;20.40;74.80
19039;DHT22;9652;49.014;12.052;2023-09-19T05:09:01;20.40;74.80
19039;DHT22;9652;49.014;12.052;2023-09-19T05:11:31;20.40;74.70
19039;DHT22;9652;49.014;12.052;2023-09-19T05:14:00;20.40;74.60
19039;DHT22;9652;49.014;12.052;2023-09-19T05:16:29;20.30;74.40
19039;DHT22;9652;49.014;12.052;2023-09-19T05:18:57;20.40;74.50
19039;DHT22;9652;49.014;12.052;2023-09-19T05:21:25;20.40;74.60
19039;DHT22;9652;49.014;12.052;2023-09-19T05:23:54;20.30;74.50
19039;DHT22;9652;49.014;12.052;2023-09-19T05:26:22;20.30;74.50
19039;DHT22;9652;49.014;12.052;2023-09-19T05:28:49;20.30;74.50
19039;DHT22;9652;49.014;12.052;2023-09-19T05:31:18;20.40;74.60
19039;DHT22;9652;49.014;12.052;2023-09-19T05:33:45;20.40;74.50
19039;DHT22;9652;49.014;12.052;2023-09-19T05:36:15;20.40;74.50
19039;DHT22;9652;49.014;12.052;2023-09-19T05:38:43;20.40;74.40
19039;DHT22;9652;49.014;12.052;2023-09-19T05:41:11;20.40;74.40
19039;DHT22;9652;49.014;12.052;2023-09-19T05:43:39;20.40;74.30
19039;DHT22;9652;49.014;12.052;2023-09-19T05:46:06;20.40;74.20
19039;DHT22;9652;49.014;12.052;2023-09-19T05:48:35;20.40;74.00
19039;DHT22;9652;49.014;12.052;2023-09-19T05:51:05;20.40;73.90
19039;DHT22;9652;49.014;12.052;2023-09-19T05:53:32;20.30;73.80
19039;DHT22;9652;49.014;12.052;2023-09-19T05:55:59;20.30;73.60
19039;DHT22;9652;49.014;12.052;2023-09-19T05:58:27;20.30;73.40
19039;DHT22;9652;49.014;12.052;2023-09-19T06:00:54;20.30;73.40
19039;DHT22;9652;49.014;12.052;2023-09-19T06:03:21;20.30;73.40
19039;DHT22;9652;49.014;12.052;2023-09-19T06:05:50;20.20;73.40
19039;DHT22;9652;49.014;12.052;2023-09-19T06:08:18;20.30;73.40
19039;DHT22;9652;49.014;12.052;2023-09-19T06:10:46;20.20;73.40
19039;DHT22;9652;49.014;12.052;2023-09-19T06:13:14;20.20;73.50
19039;DHT22;9652;49.014;12.052;2023-09-19T06:15:41;20.10;73.50
19039;DHT22;9652;49.014;12.052;2023-09-19T06:18:11;20.10;73.70
19039;DHT22;9652;49.014;12.052;2023-09-19T06:20:40;20.10;73.90
19039;DHT22;9652;49.014;12.052;2023-09-19T06:23:11;20.10;74.00
19039;DHT22;9652;49.014;12.052;2023-09-19T06:25:38;20.10;74.20
19039;DHT22;9652;49.014;12.052;2023-09-19T06:28:06;20.20;74.30
19039;DHT22;9652;49.014;12.052;2023-09-19T06:30:38;20.20;74.30
19039;DHT22;9652;49.014;12.052;2023-09-19T06:33:06;20.30;74.60
19039;DHT22;9652;49.014;12.052;2023-09-19T06:35:34;20.30;74.80
19039;DHT22;9652;49.014;12.052;2023-09-19T06:38:02;20.40;74.90
19039;DHT22;9652;49.014;12.052;2023-09-19T06:40:34;20.50;75.00
19039;DHT22;9652;49.014;12.052;2023-09-19T06:43:01;20.60;74.90
19039;DHT22;9652;49.014;12.052;2023-09-19T06:45:29;20.80;75.00
19039;DHT22;9652;49.014;12.052;2023-09-19T06:47:57;20.90;74.80
19039;DHT22;9652;49.014;12.052;2023-09-19T06:50:26;21.00;74.50
19039;DHT22;9652;49.014;12.052;2023-09-19T06:52:54;21.10;74.50
19039;DHT22;9652;49.014;12.052;2023-09-19T06:55:23;21.30;74.40
19039;DHT22;9652;49.014;12.052;2023-09-19T06:57:52;21.40;74.30
19039;DHT22;9652;49.014;12.052;2023-09-19T07:00:20;21.50;74.00
19039;DHT22;9652;49.014;12.052;2023-09-19T07:02:55;21.60;73.50
19039;DHT22;9652;49.014;12.052;2023-09-19T07:05:24;21.70;72.80
19039;DHT22;9652;49.014;12.052;2023-09-19T07:07:53;21.80;72.60
19039;DHT22;9652;49.014;12.052;2023-09-19T07:10:21;21.80;72.40
19039;DHT22;9652;49.014;12.052;2023-09-19T07:12:56;21.90;72.10
19039;DHT22;9652;49.014;12.052;2023-09-19T07:15:24;21.90;71.60
19039;DHT22;9652;49.014;12.052;2023-09-19T07:17:51;21.90;71.70
19039;DHT22;9652;49.014;12.052;2023-09-19T07:20:19;21.80;71.60
19039;DHT22;9652;49.014;12.052;2023-09-19T07:22:46;21.90;71.40
19039;DHT22;9652;49.014;12.052;2023-09-19T07:25:15;22.00;71.40
19039;DHT22;9652;49.014;12.052;2023-09-19T07:27:42;22.00;71.20
19039;DHT22;9652;49.014;12.052;2023-09-19T07:30:12;22.00;71.00
19039;DHT22;9652;49.014;12.052;2023-09-19T07:32:42;22.00;70.70
19039;DHT22;9652;49.014;12.052;2023-09-19T07:35:09;22.10;70.70
19039;DHT22;9652;49.014;12.052;2023-09-19T07:37:37;22.10;70.60
19039;DHT22;9652;49.014;12.052;2023-09-19T07:40:06;22.20;70.90
19039;DHT22;9652;49.014;12.052;2023-09-19T07:42:35;22.20;70.90
19039;DHT22;9652;49.014;12.052;2023-09-19T07:45:05;22.30;70.90
19039;DHT22;9652;49.014;12.052;2023-09-19T07:47:34;22.40;70.80
19039;DHT22;9652;49.014;12.052;2023-09-19T07:50:02;22.40;70.10
19039;DHT22;9652;49.014;12.052;2023-09-19T07:52:29;22.50;70.30
19039;DHT22;9652;49.014;12.052;2023-09-19T07:54:59;22.60;70.80
19039;DHT22;9652;49.014;12.052;2023-09-19T07:57:27;22.70;71.10
19039;DHT22;9652;49.014;12.052;2023-09-19T07:59:54;22.90;70.30
19039;DHT22;9652;49.014;12.052;2023-09-19T08:02:22;23.00;70.00
19039;DHT22;9652;49.014;12.052;2023-09-19T08:04:51;23.10;69.30
19039;DHT22;9652;49.014;12.052;2023-09-19T08:07:18;23.10;69.60
19039;DHT22;9652;49.014;12.052;2023-09-19T08:09:45;23.20;68.30
19039;DHT22;9652;49.014;12.052;2023-09-19T08:12:14;23.20;68.30
19039;DHT22;9652;49.014;12.052;2023-09-19T08:14:42;23.20;68.10
19039;DHT22;9652;49.014;12.052;2023-09-19T08:17:09;23.20;67.60
19039;DHT22;9652;49.014;12.052;2023-09-19T08:19:37;23.30;67.30
19039;DHT22;9652;49.014;12.052;2023-09-19T08:22:08;23.20;67.00
19039;DHT22;9652;49.014;12.052;2023-09-19T08:24:36;23.20;66.60
19039;DHT22;9652;49.014;12.052;2023-09-19T08:27:04;23.20;66.10
19039;DHT22;9652;49.014;12.052;2023-09-19T08:29:34;23.20;66.40
19039;DHT22;9652;49.014;12.052;2023-09-19T08:32:02;23.20;66.50
19039;DHT22;9652;49.014;12.052;2023-09-19T08:34:30;23.10;66.30
19039;DHT22;9652;49.014;12.052;2023-09-19T08:36:58;23.20;66.50
19039;DHT22;9652;49.014;12.052;2023-09-19T08:39:26;23.20;66.70
19039;DHT22;9652;49.014;12.052;2023-09-19T08:41:59;23.20;66.70
19039;DHT22;9652;49.014;12.052;2023-09-19T08:44:28;23.20;66.50
19039;DHT22;9652;49.014;12.052;2023-09-19T08:47:04;23.30;66.60
19039;DHT22;9652;49.014;12.052;2023-09-19T08:49:42;23.40;66.20
19039;DHT22;9652;49.014;12.052;2023-09-19T08:52:22;23.50;66.80
19039;DHT22;9652;49.014;12.052;2023-09-19T08:54:58;23.60;66.80
19039;DHT22;9652;49.014;12.052;2023-09-19T08:57:29;23.80;66.30
19039;DHT22;9652;49.014;12.052;2023-09-19T09:00:02;24.00;66.50
19039;DHT22;9652;49.014;12.052;2023-09-19T09:02:37;24.10;66.00
19039;DHT22;9652;49.014;12.052;2023-09-19T09:05:07;24.20;65.50
19039;DHT22;9652;49.014;12.052;2023-09-19T09:07:36;24.40;65.70
19039;DHT22;9652;49.014;12.052;2023-09-19T09:10:07;24.50;64.70
19039;DHT22;9652;49.014;12.052;2023-09-19T09:12:35;24.60;64.10
19039;DHT22;9652;49.014;12.052;2023-09-19T09:15:06;24.70;64.20
19039;DHT22;9652;49.014;12.052;2023-09-19T09:17:34;24.70;63.70
19039;DHT22;9652;49.014;12.052;2023-09-19T09:20:01;24.80;63.00
19039;DHT22;9652;49.014;12.052;2023-09-19T09:22:30;24.90;62.20
19039;DHT22;9652;49.014;12.052;2023-09-19T09:24:58;24.90;61.50
19039;DHT22;9652;49.014;12.052;2023-09-19T09:27:30;24.80;60.70
19039;DHT22;9652;49.014;12.052;2023-09-19T09:29:58;24.80;60.60
19039;DHT22;9652;49.014;12.052;2023-09-19T09:32:26;24.80;60.80
19039;DHT22;9652;49.014;12.052;2023-09-19T09:34:56;24.80;60.60
19039;DHT22;9652;49.014;12.052;2023-09-19T09:37:25;24.90;60.10
19039;DHT22;9652;49.014;12.052;2023-09-19T09:39:56;24.90;59.80
19039;DHT22;9652;49.014;12.052;2023-09-19T09:42:45;24.80;59.60
19039;DHT22;9652;49.014;12.052;2023-09-19T09:45:14;24.80;59.40
19039;DHT22;9652;49.014;12.052;2023-09-19T09:47:43;24.70;59.20
19039;DHT22;9652;49.014;12.052;2023-09-19T09:50:26;24.60;59.10
19039;DHT22;9652;49.014;12.052;2023-09-19T09:53:23;24.50;59.20
19039;DHT22;9652;49.014;12.052;2023-09-19T09:56:01;24.50;58.70
19039;DHT22;9652;49.014;12.052;2023-09-19T09:58:33;24.40;58.80
19039;DHT22;9652;49.014;12.052;2023-09-19T10:01:02;24.50;59.20
19039;DHT22;9652;49.014;12.052;2023-09-19T10:03:35;24.50;59.30
19039;DHT22;9652;49.014;12.052;2023-09-19T10:06:07;24.40;59.20
19039;DHT22;9652;49.014;12.052;2023-09-19T10:09:04;24.50;59.00
19039;DHT22;9652;49.014;12.052;2023-09-19T10:11:41;24.50;58.10
19039;DHT22;9652;49.014;12.052;2023-09-19T10:14:12;24.60;59.10
19039;DHT22;9652;49.014;12.052;2023-09-19T10:16:46;24.70;59.10
19039;DHT22;9652;49.014;12.052;2023-09-19T10:19:23;24.80;58.90
19039;DHT22;9652;49.014;12.052;2023-09-19T10:22:01;24.90;58.30
19039;DHT22;9652;49.014;12.052;2023-09-19T10:24:30;25.00;58.40
19039;DHT22;9652;49.014;12.052;2023-09-19T10:27:00;25.10;58.60
19039;DHT22;9652;49.014;12.052;2023-09-19T10:29:32;25.20;58.20
19039;DHT22;9652;49.014;12.052;2023-09-19T10:32:03;25.20;57.70
19039;DHT22;9652;49.014;12.052;2023-09-19T10:34:35;25.40;58.00
19039;DHT22;9652;49.014;12.052;2023-09-19T10:37:04;25.40;57.80
19039;DHT22;9652;49.014;12.052;2023-09-19T10:39:37;25.50;57.70
19039;DHT22;9652;49.014;12.052;2023-09-19T10:42:07;25.50;57.20
19039;DHT22;9652;49.014;12.052;2023-09-19T10:44:41;25.60;57.30
19039;DHT22;9652;49.014;12.052;2023-09-19T10:47:11;25.70;56.90
19039;DHT22;9652;49.014;12.052;2023-09-19T10:49:43;25.70;56.90
19039;DHT22;9652;49.014;12.052;2023-09-19T10:52:14;25.80;56.80
19039;DHT22;9652;49.014;12.052;2023-09-19T10:54:47;25.90;56.90
19039;DHT22;9652;49.014;12.052;2023-09-19T10:57:20;26.00;56.80
19039;DHT22;9652;49.014;12.052;2023-09-19T11:00:04;26.00;56.30
19039;DHT22;9652;49.014;12.052;2023-09-19T11:03:19;26.00;55.50
19039;DHT22;9652;49.014;12.052;2023-09-19T11:06:13;26.10;55.30
19039;DHT22;9652;49.014;12.052;2023-09-19T11:08:56;26.10;55.20
19039;DHT22;9652;49.014;12.052;2023-09-19T11:11:45;26.20;55.60
19039;DHT22;9652;49.014;12.052;2023-09-19T11:14:38;26.20;55.30
19039;DHT22;9652;49.014;12.052;2023-09-19T11:17:42;26.10;55.20
19039;DHT22;9652;49.014;12.052;2023-09-19T11:20:21;26.10;55.10
19039;DHT22;9652;49.014;12.052;2023-09-19T11:23:17;26.10;55.40
19039;DHT22;9652;49.014;12.052;2023-09-19T11:25:48;26.10;55.30
19039;DHT22;9652;49.014;12.052;2023-09-19T11:28:34;26.00;55.90
19039;DHT22;9652;49.014;12.052;2023-09-19T11:34:46;26.00;55.20
19039;DHT22;9652;49.014;12.052;2023-09-19T11:40:44;26.20;53.40
19039;DHT22;9652;49.014;12.052;2023-09-19T11:43:33;26.30;55.00
19039;DHT22;9652;49.014;12.052;2023-09-19T11:46:07;26.30;54.00
19039;DHT22;9652;49.014;12.052;2023-09-19T11:48:35;26.30;54.50
19039;DHT22;9652;49.014;12.052;2023-09-19T11:51:15;26.30;54.70
19039;DHT22;9652;49.014;12.052;2023-09-19T11:53:48;26.20;53.80
19039;DHT22;9652;49.014;12.052;2023-09-19T11:56:18;26.30;54.60
19039;DHT22;9652;49.014;12.052;2023-09-19T11:58:46;26.20;54.60
19039;DHT22;9652;49.014;12.052;2023-09-19T12:01:22;26.30;54.70
19039;DHT22;9652;49.014;12.052;2023-09-19T12:03:53;26.30;54.50
19039;DHT22;9652;49.014;12.052;2023-09-19T12:06:25;26.40;54.10
19039;DHT22;9652;49.014;12.052;2023-09-19T12:08:53;26.30;53.10
19039;DHT22;9652;49.014;12.052;2023-09-19T12:11:22;26.40;53.70
19039;DHT22;9652;49.014;12.052;2023-09-19T12:13:52;26.40;53.30
19039;DHT22;9652;49.014;12.052;2023-09-19T12:16:24;26.30;53.40
19039;DHT22;9652;49.014;12.052;2023-09-19T12:18:51;26.40;53.60
19039;DHT22;9652;49.014;12.052;2023-09-19T12:21:28;26.30;53.40
19039;DHT22;9652;49.014;12.052;2023-09-19T12:24:11;26.40;52.40
19039;DHT22;9652;49.014;12.052;2023-09-19T12:26:40;26.40;51.40
19039;DHT22;9652;49.014;12.052;2023-09-19T12:29:13;26.40;51.70
19039;DHT22;9652;49.014;12.052;2023-09-19T12:31:53;26.40;52.30
19039;DHT22;9652;49.014;12.052;2023-09-19T12:34:26;26.40;51.40
19039;DHT22;9652;49.014;12.052;2023-09-19T12:37:12;26.40;51.40
19039;DHT22;9652;49.014;12.052;2023-09-19T12:39:45;26.30;50.70
19039;DHT22;9652;49.014;12.052;2023-09-19T12:42:15;26.40;50.20
19039;DHT22;9652;49.014;12.052;2023-09-19T12:44:45;26.30;50.80
19039;DHT22;9652;49.014;12.052;2023-09-19T12:47:15;26.30;50.70
19039;DHT22;9652;49.014;12.052;2023-09-19T12:50:11;26.30;50.80
19039;DHT22;9652;49.014;12.052;2023-09-19T12:52:45;26.20;49.50
19039;DHT22;9652;49.014;12.052;2023-09-19T12:55:21;26.20;49.70
19039;DHT22;9652;49.014;12.052;2023-09-19T12:58:07;26.10;49.60
19039;DHT22;9652;49.014;12.052;2023-09-19T13:00:38;26.00;49.70
19039;DHT22;9652;49.014;12.052;2023-09-19T13:03:11;26.00;50.50
19039;DHT22;9652;49.014;12.052;2023-09-19T13:06:02;26.00;50.40
19039;DHT22;9652;49.014;12.052;2023-09-19T13:08:33;25.90;49.60
19039;DHT22;9652;49.014;12.052;2023-09-19T13:11:05;25.90;50.90
19039;DHT22;9652;49.014;12.052;2023-09-19T13:13:36;25.90;51.10
19039;DHT22;9652;49.014;12.052;2023-09-19T13:16:04;25.90;51.10
19039;DHT22;9652;49.014;12.052;2023-09-19T13:18:48;26.00;50.50
19039;DHT22;9652;49.014;12.052;2023-09-19T13:21:31;26.00;50.60
19039;DHT22;9652;49.014;12.052;2023-09-19T13:24:20;26.10;50.90
19039;DHT22;9652;49.014;12.052;2023-09-19T13:26:53;26.20;50.50
19039;DHT22;9652;49.014;12.052;2023-09-19T13:29:21;26.20;51.10
19039;DHT22;9652;49.014;12.052;2023-09-19T13:31:48;26.30;51.00
19039;DHT22;9652;49.014;12.052;2023-09-19T13:34:18;26.20;50.50
19039;DHT22;9652;49.014;12.052;2023-09-19T13:36:47;26.20;50.40
19039;DHT22;9652;49.014;12.052;2023-09-19T13:39:14;26.20;50.30
19039;DHT22;9652;49.014;12.052;2023-09-19T13:41:44;26.20;50.30
19039;DHT22;9652;49.014;12.052;2023-09-19T13:44:12;26.20;50.30
19039;DHT22;9652;49.014;12.052;2023-09-19T13:46:39;26.20;50.40
19039;DHT22;9652;49.014;12.052;2023-09-19T13:49:11;26.20;50.30
19039;DHT22;9652;49.014;12.052;2023-09-19T13:51:38;26.20;50.20
19039;DHT22;9652;49.014;12.052;2023-09-19T13:54:09;26.20;49.90
19039;DHT22;9652;49.014;12.052;2023-09-19T13:56:37;26.30;49.90
19039;DHT22;9652;49.014;12.052;2023-09-19T13:59:06;26.30;50.10
19039;DHT22;9652;49.014;12.052;2023-09-19T14:01:33;26.40;50.60
19039;DHT22;9652;49.014;12.052;2023-09-19T14:04:00;26.60;50.60
19039;DHT22;9652;49.014;12.052;2023-09-19T14:06:28;26.70;50.20
19039;DHT22;9652;49.014;12.052;2023-09-19T14:08:55;26.90;50.40
19039;DHT22;9652;49.014;12.052;2023-09-19T14:11:22;27.00;50.10
19039;DHT22;9652;49.014;12.052;2023-09-19T14:13:49;27.20;49.80
19039;DHT22;9652;49.014;12.052;2023-09-19T14:16:18;27.20;49.40
19039;DHT22;9652;49.014;12.052;2023-09-19T14:18:48;27.30;48.60
19039;DHT22;9652;49.014;12.052;2023-09-19T14:21:16;27.30;48.30
19039;DHT22;9652;49.014;12.052;2023-09-19T14:23:44;27.20;48.10
19039;DHT22;9652;49.014;12.052;2023-09-19T14:26:11;27.10;48.20
19039;DHT22;9652;49.014;12.052;2023-09-19T14:28:39;27.00;48.10
19039;DHT22;9652;49.014;12.052;2023-09-19T14:31:07;26.80;48.30
19039;DHT22;9652;49.014;12.052;2023-09-19T14:33:36;26.70;48.30
19039;DHT22;9652;49.014;12.052;2023-09-19T14:36:04;26.60;47.90
19039;DHT22;9652;49.014;12.052;2023-09-19T14:38:34;26.50;48.40
19039;DHT22;9652;49.014;12.052;2023-09-19T14:41:02;26.30;48.50
19039;DHT22;9652;49.014;12.052;2023-09-19T14:43:30;26.30;48.80
19039;DHT22;9652;49.014;12.052;2023-09-19T14:46:02;26.20;49.00
19039;DHT22;9652;49.014;12.052;2023-09-19T14:48:29;26.30;49.40
19039;DHT22;9652;49.014;12.052;2023-09-19T14:51:03;26.40;49.40
19039;DHT22;9652;49.014;12.052;2023-09-19T14:53:30;26.40;49.30
19039;DHT22;9652;49.014;12.052;2023-09-19T14:56:00;26.60;49.70
19039;DHT22;9652;49.014;12.052;2023-09-19T14:58:28;26.70;49.50
19039;DHT22;9652;49.014;12.052;2023-09-19T15:01:02;26.80;49.50
19039;DHT22;9652;49.014;12.052;2023-09-19T15:03:31;26.90;48.70
19039;DHT22;9652;49.014;12.052;2023-09-19T15:05:59;26.90;48.90
19039;DHT22;9652;49.014;12.052;2023-09-19T15:08:28;27.10;48.80
19039;DHT22;9652;49.014;12.052;2023-09-19T15:10:55;26.90;48.50
19039;DHT22;9652;49.014;12.052;2023-09-19T15:13:24;26.80;48.30
19039;DHT22;9652;49.014;12.052;2023-09-19T15:15:58;26.80;48.50
19039;DHT22;9652;49.014;12.052;2023-09-19T15:18:27;26.70;48.40
19039;DHT22;9652;49.014;12.052;2023-09-19T15:20:54;26.70;49.00
19039;DHT22;9652;49.014;12.052;2023-09-19T15:23:21;26.70;49.20
19039;DHT22;9652;49.014;12.052;2023-09-19T15:25:50;26.80;49.10
19039;DHT22;9652;49.014;12.052;2023-09-19T15:28:17;26.90;48.60
19039;DHT22;9652;49.014;12.052;2023-09-19T15:30:48;27.00;48.50
19039;DHT22;9652;49.014;12.052;2023-09-19T15:33:15;27.00;48.30
19039;DHT22;9652;49.014;12.052;2023-09-19T15:35:43;27.00;48.10
19039;DHT22;9652;49.014;12.052;2023-09-19T15:38:10;27.00;47.80
19039;DHT22;9652;49.014;12.052;2023-09-19T15:40:46;26.80;47.70
19039;DHT22;9652;49.014;12.052;2023-09-19T15:43:14;26.70;47.30
19039;DHT22;9652;49.014;12.052;2023-09-19T15:45:42;26.60;47.40
19039;DHT22;9652;49.014;12.052;2023-09-19T15:48:09;26.40;47.20
19039;DHT22;9652;49.014;12.052;2023-09-19T15:50:37;26.30;47.40
19039;DHT22;9652;49.014;12.052;2023-09-19T15:53:04;26.20;47.50
19039;DHT22;9652;49.014;12.052;2023-09-19T15:55:31;26.00;47.60
19039;DHT22;9652;49.014;12.052;2023-09-19T15:57:58;25.90;47.70
19039;DHT22;9652;49.014;12.052;2023-09-19T16:00:27;25.70;47.90